createdAt,value
2023-02-13T00:00:20.329Z,96.45
2023-02-13T00:02:47.015Z,96.49
2023-02-13T00:05:13.495Z,96.43
2023-02-13T00:07:40.113Z,96.26
2023-02-13T00:10:07.617Z,96.13
2023-02-13T00:12:34.154Z,96.06
2023-02-13T00:15:00.582Z,95.81
2023-02-13T00:17:27.472Z,95.69
2023-02-13T00:19:53.886Z,95.51
2023-02-13T00:22:20.307Z,95.37
2023-02-13T00:24:46.851Z,95.08
2023-02-13T00:27:13.534Z,94.77
2023-02-13T00:29:39.943Z,94.66
2023-02-13T00:32:06.488Z,94.47
2023-02-13T00:34:32.990Z,94.43
2023-02-13T00:37:01.151Z,94.43
2023-02-13T00:39:27.610Z,94.22
2023-02-13T00:41:54.076Z,94.20
2023-02-13T00:44:20.459Z,94.01
2023-02-13T00:46:46.985Z,93.92
2023-02-13T00:49:13.431Z,93.65
2023-02-13T00:51:39.876Z,93.47
2023-02-13T00:54:06.314Z,93.41
2023-02-13T00:56:32.736Z,93.36
2023-02-13T00:58:59.548Z,93.12
2023-02-13T01:01:26.246Z,93.05
2023-02-13T01:03:52.765Z,93.00
2023-02-13T01:06:20.962Z,92.98
2023-02-13T01:08:47.426Z,93.07
2023-02-13T01:11:15.544Z,92.69
2023-02-13T01:13:43.710Z,92.97
2023-02-13T01:16:10.687Z,92.86
2023-02-13T01:18:37.161Z,92.57
2023-02-13T01:21:09.251Z,92.43
2023-02-13T01:23:37.606Z,92.32
2023-02-13T01:26:06.713Z,92.25
2023-02-13T01:28:33.802Z,92.32
2023-02-13T01:31:01.422Z,92.02
2023-02-13T01:33:29.251Z,92.21
2023-02-13T01:35:55.929Z,92.14
2023-02-13T01:38:22.364Z,92.10
2023-02-13T01:40:51.606Z,92.07
2023-02-13T01:43:18.744Z,91.93
2023-02-13T01:45:48.790Z,92.00
2023-02-13T01:48:21.396Z,92.00
2023-02-13T01:51:02.801Z,92.18
2023-02-13T01:53:35.647Z,92.36
2023-02-13T01:56:23.537Z,92.46
2023-02-13T01:58:54.453Z,92.69
2023-02-13T02:01:23.249Z,92.74
2023-02-13T02:03:57.589Z,92.77
2023-02-13T02:06:28.608Z,92.85
2023-02-13T02:09:02.149Z,92.92
2023-02-13T02:11:52.960Z,93.05
2023-02-13T02:14:20.316Z,93.03
2023-02-13T02:16:46.854Z,92.95
2023-02-13T02:19:24.791Z,93.04
2023-02-13T02:22:19.040Z,93.03
2023-02-13T02:25:17.789Z,93.18
2023-02-13T02:27:59.998Z,93.24
2023-02-13T02:30:33.989Z,93.16
2023-02-13T02:33:27.586Z,93.21
2023-02-13T02:36:12.805Z,93.29
2023-02-13T02:38:58.687Z,93.32
2023-02-13T02:41:46.371Z,93.51
2023-02-13T02:44:32.791Z,93.38
2023-02-13T02:47:51.452Z,93.51
2023-02-13T02:50:40.251Z,93.51
2023-02-13T02:53:17.628Z,93.68
2023-02-13T02:55:48.277Z,93.58
2023-02-13T02:58:45.294Z,93.55
2023-02-13T03:01:34.589Z,93.41
2023-02-13T03:04:21.902Z,93.39
2023-02-13T03:07:03.907Z,93.56
2023-02-13T03:09:54.510Z,93.61
2023-02-13T03:12:42.100Z,93.54
2023-02-13T03:15:09.585Z,93.52
2023-02-13T03:17:55.399Z,93.60
2023-02-13T03:20:55.744Z,93.53
2023-02-13T03:23:38.783Z,93.59
2023-02-13T03:26:33.221Z,93.67
2023-02-13T03:29:23.966Z,93.61
2023-02-13T03:32:01.420Z,93.66
2023-02-13T03:34:52.522Z,93.63
2023-02-13T03:37:45.361Z,93.71
2023-02-13T03:40:23.499Z,93.75
2023-02-13T03:42:58.491Z,93.76
2023-02-13T03:45:51.666Z,93.78
2023-02-13T03:48:42.159Z,93.69
2023-02-13T03:51:12.216Z,93.73
2023-02-13T03:53:42.473Z,93.49
2023-02-13T03:56:31.867Z,93.89
2023-02-13T03:59:16.229Z,94.03
2023-02-13T04:01:53.946Z,94.18
2023-02-13T04:04:27.701Z,94.17
2023-02-13T04:07:05.066Z,94.18
2023-02-13T04:09:35.676Z,94.27
2023-02-13T04:12:09.146Z,94.43
2023-02-13T04:14:52.882Z,94.63
2023-02-13T04:17:43.646Z,94.63
2023-02-13T04:20:11.264Z,94.61
2023-02-13T04:22:46.461Z,94.55
2023-02-13T04:25:15.257Z,94.67
2023-02-13T04:27:41.674Z,94.77
2023-02-13T04:30:09.194Z,94.83
2023-02-13T04:32:35.779Z,94.83
2023-02-13T04:35:02.212Z,94.83
2023-02-13T04:37:28.617Z,94.97
2023-02-13T04:39:55.008Z,95.12
2023-02-13T04:42:21.425Z,95.09
2023-02-13T04:44:47.973Z,95.35
2023-02-13T04:47:14.355Z,95.40
2023-02-13T04:49:40.744Z,95.57
2023-02-13T04:52:07.135Z,95.55
2023-02-13T04:54:33.543Z,95.68
2023-02-13T04:56:59.968Z,95.71
2023-02-13T04:59:26.368Z,95.52
2023-02-13T05:01:54.130Z,95.53
2023-02-13T05:04:20.631Z,95.76
2023-02-13T05:06:47.160Z,95.86
2023-02-13T05:09:13.614Z,95.88
2023-02-13T05:11:40.170Z,95.89
2023-02-13T05:14:06.566Z,96.06
2023-02-13T05:16:33.328Z,96.20
2023-02-13T05:18:59.913Z,96.36
2023-02-13T05:21:44.709Z,96.29
2023-02-13T05:24:11.541Z,96.31
2023-02-13T05:26:37.976Z,96.51
2023-02-13T05:29:19.774Z,96.51
2023-02-13T05:31:47.440Z,96.74
2023-02-13T05:34:13.964Z,96.79
2023-02-13T05:36:40.387Z,96.97
2023-02-13T05:39:06.972Z,97.08
2023-02-13T05:41:33.402Z,97.29
2023-02-13T05:43:59.803Z,97.17
2023-02-13T05:46:26.724Z,97.32
2023-02-13T05:48:53.490Z,97.42
2023-02-13T05:51:20.790Z,97.52
2023-02-13T05:53:47.234Z,97.58
2023-02-13T05:56:13.788Z,97.69
2023-02-13T05:58:40.198Z,97.83
2023-02-13T06:01:06.666Z,97.90
2023-02-13T06:03:33.301Z,98.32
2023-02-13T06:05:59.995Z,98.81
2023-02-13T06:08:26.402Z,99.03
2023-02-13T06:10:52.851Z,99.22
2023-02-13T06:13:19.443Z,99.32
2023-02-13T06:15:46.000Z,99.38
2023-02-13T06:18:12.411Z,99.34
2023-02-13T06:20:39.049Z,99.51
2023-02-13T06:23:05.578Z,99.90
2023-02-13T06:25:31.978Z,99.58
2023-02-13T06:27:58.448Z,99.65
2023-02-13T06:30:24.871Z,99.65
2023-02-13T06:32:51.387Z,100.00
2023-02-13T06:35:17.943Z,100.00
2023-02-13T06:37:44.911Z,100.00
2023-02-13T06:40:13.159Z,100.00
2023-02-13T06:42:39.863Z,100.00
2023-02-13T06:45:07.087Z,100.00
2023-02-13T06:47:33.469Z,100.00
2023-02-13T06:49:59.926Z,100.00
2023-02-13T06:52:26.467Z,100.00
2023-02-13T06:54:52.829Z,100.00
2023-02-13T06:57:19.278Z,100.00
2023-02-13T06:59:45.702Z,100.00
2023-02-13T07:02:13.040Z,100.00
2023-02-13T07:04:39.770Z,100.00
2023-02-13T07:07:06.293Z,100.00
2023-02-13T07:09:33.013Z,100.00
2023-02-13T07:12:03.198Z,100.00
2023-02-13T07:14:29.556Z,100.00
2023-02-13T07:16:55.939Z,100.00
2023-02-13T07:19:22.320Z,100.00
2023-02-13T07:21:48.990Z,100.00
2023-02-13T07:24:15.442Z,100.00
2023-02-13T07:26:42.068Z,100.00
2023-02-13T07:29:11.961Z,100.00
2023-02-13T07:31:39.669Z,100.00
2023-02-13T07:34:06.366Z,100.00
2023-02-13T07:36:32.817Z,100.00
2023-02-13T07:38:59.311Z,100.00
2023-02-13T07:41:26.719Z,100.00
2023-02-13T07:43:54.315Z,100.00
2023-02-13T07:46:20.779Z,100.00
2023-02-13T07:48:47.203Z,100.00
2023-02-13T07:51:14.166Z,100.00
2023-02-13T07:53:40.587Z,100.00
2023-02-13T07:56:07.948Z,100.00
2023-02-13T07:58:36.239Z,100.00
2023-02-13T08:01:11.002Z,100.00
2023-02-13T08:03:37.752Z,100.00
2023-02-13T08:06:05.787Z,100.00
2023-02-13T08:08:32.576Z,100.00
2023-02-13T08:11:31.247Z,100.00
2023-02-13T08:13:57.639Z,100.00
2023-02-13T08:16:24.151Z,100.00
2023-02-13T08:18:50.549Z,100.00
2023-02-13T08:21:16.924Z,100.00
2023-02-13T08:23:43.413Z,100.00
2023-02-13T08:26:10.963Z,100.00
2023-02-13T08:28:37.878Z,100.00
2023-02-13T08:31:12.787Z,100.00
2023-02-13T08:33:41.272Z,100.00
2023-02-13T08:36:08.379Z,100.00
2023-02-13T08:38:34.901Z,100.00
2023-02-13T08:41:01.272Z,100.00
2023-02-13T08:43:27.643Z,100.00
2023-02-13T08:45:54.122Z,100.00
2023-02-13T08:48:20.533Z,100.00
2023-02-13T08:50:46.966Z,100.00
2023-02-13T08:53:13.383Z,100.00
2023-02-13T08:55:39.756Z,100.00
2023-02-13T08:58:06.201Z,100.00
2023-02-13T09:00:32.756Z,100.00
2023-02-13T09:03:03.076Z,100.00
2023-02-13T09:05:31.590Z,100.00
2023-02-13T09:08:03.472Z,100.00
2023-02-13T09:10:31.826Z,100.00
2023-02-13T09:12:58.452Z,100.00
2023-02-13T09:15:24.876Z,100.00
2023-02-13T09:17:51.335Z,100.00
2023-02-13T09:20:17.802Z,100.00
2023-02-13T09:22:44.593Z,100.00
2023-02-13T09:25:10.965Z,99.93
2023-02-13T09:27:39.073Z,99.63
2023-02-13T09:30:23.182Z,99.47
2023-02-13T09:32:52.018Z,99.00
2023-02-13T09:35:19.226Z,97.97
2023-02-13T09:37:46.011Z,97.82
2023-02-13T09:40:28.378Z,97.16
2023-02-13T09:43:07.468Z,96.19
2023-02-13T09:45:34.563Z,95.68
2023-02-13T09:48:01.128Z,95.35
2023-02-13T09:50:33.364Z,95.11
2023-02-13T09:53:01.199Z,94.09
2023-02-13T09:55:54.184Z,93.41
2023-02-13T09:58:32.782Z,93.88
2023-02-13T10:01:02.008Z,93.70
2023-02-13T10:03:42.649Z,93.41
2023-02-13T10:06:53.485Z,92.23
2023-02-13T10:09:33.481Z,92.03
2023-02-13T10:12:16.712Z,91.88
2023-02-13T10:14:54.545Z,91.65
2023-02-13T10:17:34.200Z,91.21
2023-02-13T10:20:08.435Z,91.63
2023-02-13T10:22:51.574Z,91.13
2023-02-13T10:25:25.196Z,89.87
2023-02-13T10:28:00.693Z,89.65
2023-02-13T10:30:33.036Z,89.39
2023-02-13T10:33:20.262Z,89.28
2023-02-13T10:36:11.549Z,88.96
2023-02-13T10:39:07.119Z,88.96
2023-02-13T10:41:42.938Z,88.51
2023-02-13T10:44:12.046Z,87.70
2023-02-13T10:47:08.804Z,87.07
2023-02-13T10:49:44.236Z,86.67
2023-02-13T10:52:39.608Z,86.60
2023-02-13T10:55:22.598Z,85.98
2023-02-13T10:57:59.179Z,86.06
2023-02-13T11:00:34.780Z,85.92
2023-02-13T11:03:01.661Z,85.17
2023-02-13T11:05:38.444Z,83.70
2023-02-13T11:08:29.086Z,83.58
2023-02-13T11:10:55.461Z,83.21
2023-02-13T11:13:25.023Z,82.50
2023-02-13T11:16:02.306Z,82.26
2023-02-13T11:18:33.983Z,82.37
2023-02-13T11:21:16.970Z,81.25
2023-02-13T11:23:52.298Z,80.83
2023-02-13T11:26:24.442Z,80.54
2023-02-13T11:28:55.895Z,79.73
2023-02-13T11:31:34.667Z,79.13
2023-02-13T11:34:18.669Z,78.28
2023-02-13T11:36:45.119Z,77.58
2023-02-13T11:39:23.026Z,76.78
2023-02-13T11:41:52.695Z,76.12
2023-02-13T11:44:25.299Z,74.21
2023-02-13T11:46:57.152Z,72.66
2023-02-13T11:49:26.043Z,71.89
2023-02-13T11:52:02.300Z,70.79
2023-02-13T11:54:32.671Z,69.64
2023-02-13T11:57:36.606Z,68.14
2023-02-13T12:00:39.837Z,66.04
2023-02-13T12:03:31.013Z,63.57
2023-02-13T12:06:05.557Z,61.59
2023-02-13T12:08:38.647Z,61.26
2023-02-13T12:11:36.314Z,60.16
2023-02-13T12:14:03.147Z,57.89
2023-02-13T12:16:43.051Z,56.26
2023-02-13T12:19:17.469Z,55.27
2023-02-13T12:22:11.872Z,53.45
2023-02-13T12:25:09.278Z,50.38
2023-02-13T12:27:51.690Z,50.35
2023-02-13T12:30:36.543Z,50.01
2023-02-13T12:33:30.106Z,48.84
2023-02-13T12:36:23.658Z,48.20
2023-02-13T12:39:25.714Z,46.18
2023-02-13T12:42:06.866Z,45.22
2023-02-13T12:44:51.607Z,44.48
2023-02-13T12:47:21.219Z,43.14
2023-02-13T12:49:59.237Z,42.56
2023-02-13T12:52:31.436Z,42.53
2023-02-13T12:55:20.001Z,42.47
2023-02-13T12:57:55.492Z,41.61
2023-02-13T13:00:40.573Z,40.75
2023-02-13T13:03:25.661Z,40.31
2023-02-13T13:06:12.198Z,37.96
2023-02-13T13:09:06.264Z,37.66
2023-02-13T13:11:44.778Z,37.56
2023-02-13T13:14:38.488Z,37.68
2023-02-13T13:17:14.657Z,36.86
2023-02-13T13:20:08.820Z,37.16
2023-02-13T13:22:45.746Z,36.66
2023-02-13T13:25:21.270Z,36.10
2023-02-13T13:27:53.035Z,35.83
2023-02-13T13:30:22.578Z,35.87
2023-02-13T13:32:55.888Z,35.79
2023-02-13T13:35:22.498Z,35.42
2023-02-13T13:38:02.441Z,35.42
2023-02-13T13:40:42.922Z,34.76
2023-02-13T13:43:22.901Z,34.49
2023-02-13T13:46:08.859Z,34.27
2023-02-13T13:48:53.062Z,34.20
2023-02-13T13:51:20.218Z,34.02
2023-02-13T13:54:15.775Z,33.92
2023-02-13T13:56:54.333Z,33.48
2023-02-13T13:59:51.334Z,33.13
2023-02-13T14:02:17.722Z,32.96
2023-02-13T14:05:18.552Z,32.81
2023-02-13T14:07:47.472Z,32.55
2023-02-13T14:10:26.104Z,32.24
2023-02-13T14:12:55.556Z,32.14
2023-02-13T14:15:34.623Z,31.99
2023-02-13T14:18:07.887Z,31.89
2023-02-13T14:20:38.656Z,32.00
2023-02-13T14:23:49.544Z,32.25
2023-02-13T14:26:15.868Z,31.83
2023-02-13T14:29:11.684Z,32.08
2023-02-13T14:31:52.605Z,32.33
2023-02-13T14:34:26.860Z,32.71
2023-02-13T14:37:20.616Z,33.01
2023-02-13T14:40:18.284Z,33.43
2023-02-13T14:42:48.064Z,33.57
2023-02-13T14:45:22.892Z,33.66
2023-02-13T14:47:55.318Z,33.95
2023-02-13T14:50:34.716Z,34.13
2023-02-13T14:53:16.814Z,34.61
2023-02-13T14:55:46.183Z,34.59
2023-02-13T14:58:16.127Z,35.39
2023-02-13T15:01:00.912Z,35.65
2023-02-13T15:03:40.969Z,36.33
2023-02-13T15:06:23.757Z,35.85
2023-02-13T15:08:52.765Z,36.54
2023-02-13T15:11:37.611Z,37.07
2023-02-13T15:14:25.926Z,37.89
2023-02-13T15:16:57.144Z,38.78
2023-02-13T15:19:24.963Z,39.37
2023-02-13T15:22:03.382Z,38.59
2023-02-13T15:24:37.659Z,39.29
2023-02-13T15:27:07.199Z,41.11
2023-02-13T15:29:47.861Z,41.96
2023-02-13T15:32:28.204Z,43.01
2023-02-13T15:34:55.279Z,43.97
2023-02-13T15:37:28.628Z,45.03
2023-02-13T15:39:55.099Z,46.24
2023-02-13T15:42:21.751Z,46.28
2023-02-13T15:44:53.979Z,45.88
2023-02-13T15:47:28.451Z,46.12
2023-02-13T15:49:55.371Z,47.24
2023-02-13T15:52:24.683Z,46.83
2023-02-13T15:54:54.238Z,46.94
2023-02-13T15:57:23.164Z,47.58
2023-02-13T15:59:50.527Z,49.37
2023-02-13T16:02:29.870Z,50.25
2023-02-13T16:04:57.436Z,50.34
2023-02-13T16:07:23.899Z,50.57
2023-02-13T16:09:50.333Z,51.22
2023-02-13T16:12:25.700Z,51.51
2023-02-13T16:14:59.813Z,51.79
2023-02-13T16:17:33.239Z,52.96
2023-02-13T16:20:01.637Z,54.12
2023-02-13T16:22:38.713Z,54.96
2023-02-13T16:25:14.051Z,55.49
2023-02-13T16:27:46.727Z,55.95
2023-02-13T16:30:23.428Z,57.13
2023-02-13T16:32:49.946Z,57.94
2023-02-13T16:35:28.834Z,58.81
2023-02-13T16:38:00.429Z,59.88
2023-02-13T16:40:40.920Z,60.85
2023-02-13T16:43:33.439Z,61.90
2023-02-13T16:46:13.027Z,62.76
2023-02-13T16:48:39.813Z,63.59
2023-02-13T16:51:06.676Z,64.40
2023-02-13T16:53:34.350Z,64.93
2023-02-13T16:56:07.509Z,65.35
2023-02-13T16:58:34.056Z,66.23
2023-02-13T17:01:02.895Z,67.00
2023-02-13T17:03:32.497Z,67.51
2023-02-13T17:06:02.677Z,68.06
2023-02-13T17:08:31.448Z,68.78
2023-02-13T17:11:08.210Z,69.42
2023-02-13T17:13:34.883Z,69.93
2023-02-13T17:16:01.287Z,70.59
2023-02-13T17:18:28.089Z,71.08
2023-02-13T17:20:54.615Z,71.78
2023-02-13T17:23:24.470Z,72.38
2023-02-13T17:25:53.555Z,72.89
2023-02-13T17:28:24.054Z,73.14
2023-02-13T17:30:53.947Z,73.83
2023-02-13T17:33:31.461Z,74.31
2023-02-13T17:35:58.113Z,74.97
2023-02-13T17:38:24.642Z,75.52
2023-02-13T17:40:51.729Z,76.02
2023-02-13T17:43:19.525Z,76.48
2023-02-13T17:45:46.832Z,77.12
2023-02-13T17:48:13.849Z,77.70
2023-02-13T17:50:40.284Z,78.23
2023-02-13T17:53:16.389Z,78.58
2023-02-13T17:55:43.081Z,79.17
2023-02-13T17:58:09.461Z,79.64
2023-02-13T18:00:36.007Z,80.19
2023-02-13T18:03:03.020Z,80.61
2023-02-13T18:05:31.410Z,81.11
2023-02-13T18:07:57.997Z,81.50
2023-02-13T18:10:27.528Z,81.92
2023-02-13T18:12:56.516Z,82.24
2023-02-13T18:15:24.176Z,82.46
2023-02-13T18:17:50.594Z,83.16
2023-02-13T18:20:20.542Z,83.34
2023-02-13T18:22:50.309Z,83.79
2023-02-13T18:25:18.007Z,83.94
2023-02-13T18:27:44.583Z,84.43
2023-02-13T18:30:14.048Z,84.42
2023-02-13T18:32:40.572Z,84.97
2023-02-13T18:35:08.132Z,85.23
2023-02-13T18:37:35.244Z,85.57
2023-02-13T18:40:01.745Z,85.84
2023-02-13T18:42:28.251Z,86.16
2023-02-13T18:44:54.661Z,86.48
2023-02-13T18:47:21.073Z,87.19
2023-02-13T18:49:47.471Z,87.06
2023-02-13T18:52:14.063Z,87.30
2023-02-13T18:54:40.485Z,87.95
2023-02-13T18:57:06.988Z,88.24
2023-02-13T18:59:34.000Z,88.43
2023-02-13T19:02:02.102Z,88.61
2023-02-13T19:04:29.615Z,89.29
2023-02-13T19:06:55.995Z,89.10
2023-02-13T19:09:22.478Z,89.55
2023-02-13T19:11:48.942Z,89.34
2023-02-13T19:14:15.761Z,89.35
2023-02-13T19:16:42.350Z,90.76
2023-02-13T19:19:10.397Z,90.31
2023-02-13T19:21:38.480Z,90.69
2023-02-13T19:24:08.721Z,90.78
2023-02-13T19:26:36.144Z,91.07
2023-02-13T19:29:03.230Z,91.19
2023-02-13T19:31:32.233Z,91.23
2023-02-13T19:34:00.313Z,91.43
2023-02-13T19:36:28.760Z,91.43
2023-02-13T19:38:57.592Z,91.75
2023-02-13T19:41:24.395Z,92.01
2023-02-13T19:43:51.248Z,91.78
2023-02-13T19:46:20.377Z,91.92
2023-02-13T19:48:46.889Z,92.09
2023-02-13T19:51:15.763Z,92.23
2023-02-13T19:53:42.684Z,92.42
2023-02-13T19:56:09.685Z,92.47
2023-02-13T19:58:40.350Z,92.58
2023-02-13T20:01:08.895Z,92.69
2023-02-13T20:03:35.650Z,93.43
2023-02-13T20:06:08.654Z,93.34
2023-02-13T20:08:35.353Z,93.28
2023-02-13T20:11:01.903Z,93.45
2023-02-13T20:13:28.404Z,93.74
2023-02-13T20:15:55.157Z,94.01
2023-02-13T20:18:21.722Z,94.12
2023-02-13T20:20:48.384Z,94.06
2023-02-13T20:23:16.816Z,94.44
2023-02-13T20:25:43.570Z,94.66
2023-02-13T20:28:11.442Z,94.89
2023-02-13T20:30:42.579Z,95.13
2023-02-13T20:33:09.412Z,95.46
2023-02-13T20:35:36.328Z,95.57
2023-02-13T20:38:03.957Z,95.59
2023-02-13T20:40:30.580Z,95.79
2023-02-13T20:42:57.464Z,95.92
2023-02-13T20:45:24.185Z,96.29
2023-02-13T20:47:50.645Z,96.30
2023-02-13T20:50:17.147Z,96.08
2023-02-13T20:52:43.588Z,96.57
2023-02-13T20:55:10.014Z,96.49
2023-02-13T20:57:36.434Z,96.98
2023-02-13T21:00:06.020Z,97.10
2023-02-13T21:02:32.563Z,97.28
2023-02-13T21:04:58.961Z,96.96
2023-02-13T21:07:25.406Z,97.46
2023-02-13T21:09:51.793Z,97.00
2023-02-13T21:12:18.270Z,97.64
2023-02-13T21:14:44.704Z,97.74
2023-02-13T21:17:11.131Z,97.52
2023-02-13T21:19:37.612Z,97.79
2023-02-13T21:22:13.256Z,97.90
2023-02-13T21:24:41.357Z,98.00
2023-02-13T21:27:08.890Z,98.39
2023-02-13T21:29:35.774Z,98.36
2023-02-13T21:32:03.250Z,98.48
2023-02-13T21:34:29.954Z,98.37
2023-02-13T21:36:56.318Z,98.68
2023-02-13T21:39:23.088Z,98.48
2023-02-13T21:41:49.521Z,98.52
2023-02-13T21:44:16.425Z,98.64
2023-02-13T21:46:43.871Z,98.55
2023-02-13T21:49:12.769Z,98.79
2023-02-13T21:51:39.392Z,98.59
2023-02-13T21:54:05.873Z,98.41
2023-02-13T21:56:35.316Z,98.44
2023-02-13T21:59:02.174Z,97.96
2023-02-13T22:01:44.210Z,97.78
2023-02-13T22:04:10.732Z,97.97
2023-02-13T22:06:38.931Z,97.55
2023-02-13T22:09:11.390Z,97.74
2023-02-13T22:11:38.734Z,97.47
2023-02-13T22:14:07.653Z,97.05
2023-02-13T22:16:36.956Z,96.79
2023-02-13T22:19:05.249Z,96.45
2023-02-13T22:21:33.183Z,96.55
2023-02-13T22:23:59.902Z,96.44
2023-02-13T22:26:28.914Z,96.43
2023-02-13T22:29:02.247Z,96.06
2023-02-13T22:31:28.976Z,96.09
2023-02-13T22:34:05.351Z,95.68
2023-02-13T22:36:34.228Z,95.43
2023-02-13T22:39:00.802Z,95.16
2023-02-13T22:41:27.811Z,94.63
2023-02-13T22:43:54.460Z,94.26
2023-02-13T22:46:23.726Z,93.95
2023-02-13T22:48:54.102Z,93.44
2023-02-13T22:51:24.082Z,92.94
2023-02-13T22:53:55.100Z,92.13
2023-02-13T22:56:22.764Z,91.85
2023-02-13T22:58:49.141Z,91.18
2023-02-13T23:01:19.398Z,90.59
2023-02-13T23:03:46.128Z,90.12
2023-02-13T23:06:14.779Z,90.20
2023-02-13T23:08:41.955Z,89.52
2023-02-13T23:11:29.959Z,89.52
2023-02-13T23:13:56.728Z,89.47
2023-02-13T23:16:23.524Z,89.43
2023-02-13T23:18:52.136Z,89.47
2023-02-13T23:21:19.050Z,88.89
2023-02-13T23:23:45.478Z,88.96
2023-02-13T23:26:11.942Z,89.05
2023-02-13T23:28:38.538Z,88.74
2023-02-13T23:31:05.455Z,88.54
2023-02-13T23:33:31.987Z,88.32
2023-02-13T23:35:58.464Z,88.07
2023-02-13T23:38:25.078Z,87.78
2023-02-13T23:40:51.550Z,87.31
2023-02-13T23:43:18.146Z,87.40
2023-02-13T23:45:44.596Z,87.36
2023-02-13T23:48:12.639Z,87.50
2023-02-13T23:50:39.850Z,87.25
2023-02-13T23:53:06.345Z,87.12
2023-02-13T23:55:32.821Z,87.03
2023-02-13T23:58:00.103Z,87.05
